sensor_id;sensor_type;location;lat;lon;timestamp;pressure;altitude;pressure_sealevel;temperature;humidity
79118;BME280;68523;51.336;-0.846;2023-12-22T00:00:01;100275.0;;;9.93;74.0
79118;BME280;68523;51.336;-0.846;2023-12-22T00:03:00;100275.0;;;9.96;74.2
79118;BME280;68523;51.336;-0.846;2023-12-22T00:06:01;100285.0;;;10.10;74.2
79118;BME280;68523;51.336;-0.846;2023-12-22T00:09:01;100285.0;;;10.22;74.6
79118;BME280;68523;51.336;-0.846;2023-12-22T00:12:00;100275.0;;;10.37;74.2
79118;BME280;68523;51.336;-0.846;2023-12-22T00:15:00;100285.0;;;10.31;74.9
79118;BME280;68523;51.336;-0.846;2023-12-22T00:18:01;100295.0;;;10.29;75.8
79118;BME280;68523;51.336;-0.846;2023-12-22T00:21:00;100295.0;;;10.38;75.6
79118;BME280;68523;51.336;-0.846;2023-12-22T00:24:00;100295.0;;;10.36;76.1
79118;BME280;68523;51.336;-0.846;2023-12-22T00:27:00;100285.0;;;10.23;76.8
79118;BME280;68523;51.336;-0.846;2023-12-22T00:30:00;100275.0;;;10.38;76.5
79118;BME280;68523;51.336;-0.846;2023-12-22T00:33:01;100275.0;;;10.32;77.1
79118;BME280;68523;51.336;-0.846;2023-12-22T00:36:00;100275.0;;;10.29;77.7
79118;BME280;68523;51.336;-0.846;2023-12-22T00:39:01;100275.0;;;10.37;78.0
79118;BME280;68523;51.336;-0.846;2023-12-22T00:42:01;100275.0;;;10.37;78.3
79118;BME280;68523;51.336;-0.846;2023-12-22T00:45:00;100275.0;;;10.31;79.0
79118;BME280;68523;51.336;-0.846;2023-12-22T00:48:01;100275.0;;;10.31;79.1
79118;BME280;68523;51.336;-0.846;2023-12-22T00:51:00;100275.0;;;10.29;79.4
79118;BME280;68523;51.336;-0.846;2023-12-22T00:54:01;100265.0;;;10.23;79.9
79118;BME280;68523;51.336;-0.846;2023-12-22T00:57:01;100275.0;;;10.18;80.7
79118;BME280;68523;51.336;-0.846;2023-12-22T01:00:00;100275.0;;;10.01;82.5
79118;BME280;68523;51.336;-0.846;2023-12-22T01:03:01;100285.0;;;9.86;84.4
79118;BME280;68523;51.336;-0.846;2023-12-22T01:06:01;100285.0;;;9.65;86.1
79118;BME280;68523;51.336;-0.846;2023-12-22T01:09:01;100285.0;;;9.49;87.9
79118;BME280;68523;51.336;-0.846;2023-12-22T01:12:01;100285.0;;;9.27;89.9
79118;BME280;68523;51.336;-0.846;2023-12-22T01:15:01;100285.0;;;9.09;91.3
79118;BME280;68523;51.336;-0.846;2023-12-22T01:18:01;100275.0;;;8.95;92.5
79118;BME280;68523;51.336;-0.846;2023-12-22T01:21:01;100275.0;;;8.89;93.4
79118;BME280;68523;51.336;-0.846;2023-12-22T01:24:00;100285.0;;;8.74;94.3
79118;BME280;68523;51.336;-0.846;2023-12-22T01:27:02;100275.0;;;8.70;95.0
79118;BME280;68523;51.336;-0.846;2023-12-22T01:30:00;100275.0;;;8.62;95.5
79118;BME280;68523;51.336;-0.846;2023-12-22T01:33:00;100275.0;;;8.60;95.6
79118;BME280;68523;51.336;-0.846;2023-12-22T01:36:00;100275.0;;;8.59;95.9
79118;BME280;68523;51.336;-0.846;2023-12-22T01:39:01;100265.0;;;8.61;96.1
79118;BME280;68523;51.336;-0.846;2023-12-22T01:42:01;100265.0;;;8.67;95.9
79118;BME280;68523;51.336;-0.846;2023-12-22T01:45:01;100255.0;;;8.79;95.1
79118;BME280;68523;51.336;-0.846;2023-12-22T01:48:02;100255.0;;;8.92;94.7
79118;BME280;68523;51.336;-0.846;2023-12-22T01:51:01;100255.0;;;8.99;94.4
79118;BME280;68523;51.336;-0.846;2023-12-22T01:54:01;100255.0;;;9.08;94.2
79118;BME280;68523;51.336;-0.846;2023-12-22T01:57:01;100255.0;;;9.21;93.7
79118;BME280;68523;51.336;-0.846;2023-12-22T02:00:00;100245.0;;;9.44;92.6
79118;BME280;68523;51.336;-0.846;2023-12-22T02:03:02;100245.0;;;9.42;92.8
79118;BME280;68523;51.336;-0.846;2023-12-22T02:06:01;100245.0;;;9.54;92.6
79118;BME280;68523;51.336;-0.846;2023-12-22T02:09:00;100245.0;;;9.51;92.8
79118;BME280;68523;51.336;-0.846;2023-12-22T02:12:01;100245.0;;;9.60;92.5
79118;BME280;68523;51.336;-0.846;2023-12-22T02:15:01;100245.0;;;9.73;92.0
79118;BME280;68523;51.336;-0.846;2023-12-22T02:18:04;100245.0;;;9.66;92.4
79118;BME280;68523;51.336;-0.846;2023-12-22T02:21:00;100235.0;;;9.67;92.4
79118;BME280;68523;51.336;-0.846;2023-12-22T02:24:00;100245.0;;;9.73;92.1
79118;BME280;68523;51.336;-0.846;2023-12-22T02:27:04;100235.0;;;9.72;92.1
79118;BME280;68523;51.336;-0.846;2023-12-22T02:30:05;100235.0;;;9.79;91.8
79118;BME280;68523;51.336;-0.846;2023-12-22T02:33:04;100235.0;;;9.76;92.0
79118;BME280;68523;51.336;-0.846;2023-12-22T02:36:03;100235.0;;;9.85;91.7
79118;BME280;68523;51.336;-0.846;2023-12-22T02:39:01;100235.0;;;9.76;92.2
79118;BME280;68523;51.336;-0.846;2023-12-22T02:42:01;100235.0;;;9.81;91.8
79118;BME280;68523;51.336;-0.846;2023-12-22T02:45:00;100235.0;;;9.82;91.7
79118;BME280;68523;51.336;-0.846;2023-12-22T02:48:00;100245.0;;;9.80;91.8
79118;BME280;68523;51.336;-0.846;2023-12-22T02:51:01;100245.0;;;9.78;91.9
79118;BME280;68523;51.336;-0.846;2023-12-22T02:54:00;100235.0;;;9.81;91.7
79118;BME280;68523;51.336;-0.846;2023-12-22T02:57:00;100225.0;;;9.77;91.8
79118;BME280;68523;51.336;-0.846;2023-12-22T03:00:01;100235.0;;;9.83;91.8
79118;BME280;68523;51.336;-0.846;2023-12-22T03:03:00;100225.0;;;9.71;92.2
79118;BME280;68523;51.336;-0.846;2023-12-22T03:06:00;100215.0;;;9.77;91.8
79118;BME280;68523;51.336;-0.846;2023-12-22T03:09:01;100215.0;;;9.70;92.1
79118;BME280;68523;51.336;-0.846;2023-12-22T03:12:00;100215.0;;;9.76;91.8
79118;BME280;68523;51.336;-0.846;2023-12-22T03:15:00;100205.0;;;9.75;91.8
79118;BME280;68523;51.336;-0.846;2023-12-22T03:18:00;100195.0;;;9.74;91.9
79118;BME280;68523;51.336;-0.846;2023-12-22T03:21:00;100195.0;;;9.78;91.7
79118;BME280;68523;51.336;-0.846;2023-12-22T03:24:00;100185.0;;;9.72;92.2
79118;BME280;68523;51.336;-0.846;2023-12-22T03:27:00;100185.0;;;9.77;92.1
79118;BME280;68523;51.336;-0.846;2023-12-22T03:30:00;100195.0;;;9.79;92.1
79118;BME280;68523;51.336;-0.846;2023-12-22T03:33:01;100185.0;;;9.89;91.8
79118;BME280;68523;51.336;-0.846;2023-12-22T03:36:00;100185.0;;;9.90;91.9
79118;BME280;68523;51.336;-0.846;2023-12-22T03:39:01;100185.0;;;10.01;91.5
79118;BME280;68523;51.336;-0.846;2023-12-22T03:42:00;100175.0;;;10.02;91.7
79118;BME280;68523;51.336;-0.846;2023-12-22T03:45:00;100175.0;;;10.11;91.5
79118;BME280;68523;51.336;-0.846;2023-12-22T03:48:01;100175.0;;;10.08;91.6
79118;BME280;68523;51.336;-0.846;2023-12-22T03:51:00;100185.0;;;10.11;91.7
79118;BME280;68523;51.336;-0.846;2023-12-22T03:54:00;100175.0;;;10.14;91.7
79118;BME280;68523;51.336;-0.846;2023-12-22T03:57:00;100175.0;;;10.19;91.6
79118;BME280;68523;51.336;-0.846;2023-12-22T04:00:01;100165.0;;;10.20;91.5
79118;BME280;68523;51.336;-0.846;2023-12-22T04:03:01;100165.0;;;10.29;91.0
79118;BME280;68523;51.336;-0.846;2023-12-22T04:06:01;100165.0;;;10.37;90.8
79118;BME280;68523;51.336;-0.846;2023-12-22T04:09:00;100165.0;;;10.36;90.9
79118;BME280;68523;51.336;-0.846;2023-12-22T04:12:01;100165.0;;;10.38;90.8
79118;BME280;68523;51.336;-0.846;2023-12-22T04:15:00;100165.0;;;10.42;90.6
79118;BME280;68523;51.336;-0.846;2023-12-22T04:18:01;100175.0;;;10.43;90.5
79118;BME280;68523;51.336;-0.846;2023-12-22T04:21:00;100165.0;;;10.45;90.4
79118;BME280;68523;51.336;-0.846;2023-12-22T04:24:01;100165.0;;;10.49;90.2
79118;BME280;68523;51.336;-0.846;2023-12-22T04:27:00;100175.0;;;10.53;90.1
79118;BME280;68523;51.336;-0.846;2023-12-22T04:30:01;100175.0;;;10.55;89.9
79118;BME280;68523;51.336;-0.846;2023-12-22T04:33:00;100175.0;;;10.62;89.4
79118;BME280;68523;51.336;-0.846;2023-12-22T04:36:00;100175.0;;;10.60;89.6
79118;BME280;68523;51.336;-0.846;2023-12-22T04:39:00;100185.0;;;10.61;89.6
79118;BME280;68523;51.336;-0.846;2023-12-22T04:42:01;100175.0;;;10.58;89.7
79118;BME280;68523;51.336;-0.846;2023-12-22T04:45:01;100175.0;;;10.61;89.6
79118;BME280;68523;51.336;-0.846;2023-12-22T04:48:01;100175.0;;;10.57;89.7
79118;BME280;68523;51.336;-0.846;2023-12-22T04:51:01;100165.0;;;10.58;89.7
79118;BME280;68523;51.336;-0.846;2023-12-22T04:54:00;100165.0;;;10.65;89.4
79118;BME280;68523;51.336;-0.846;2023-12-22T04:57:01;100175.0;;;10.62;89.6
79118;BME280;68523;51.336;-0.846;2023-12-22T05:00:02;100175.0;;;10.65;89.5
79118;BME280;68523;51.336;-0.846;2023-12-22T05:03:00;100165.0;;;10.60;89.7
79118;BME280;68523;51.336;-0.846;2023-12-22T05:06:01;100165.0;;;10.62;89.7
79118;BME280;68523;51.336;-0.846;2023-12-22T05:09:01;100155.0;;;10.62;89.8
79118;BME280;68523;51.336;-0.846;2023-12-22T05:12:00;100165.0;;;10.57;90.0
79118;BME280;68523;51.336;-0.846;2023-12-22T05:15:01;100155.0;;;10.62;90.0
79118;BME280;68523;51.336;-0.846;2023-12-22T05:18:01;100165.0;;;10.59;90.3
79118;BME280;68523;51.336;-0.846;2023-12-22T05:21:01;100165.0;;;10.66;89.9
79118;BME280;68523;51.336;-0.846;2023-12-22T05:24:00;100165.0;;;10.65;90.2
79118;BME280;68523;51.336;-0.846;2023-12-22T05:27:01;100155.0;;;10.64;90.1
79118;BME280;68523;51.336;-0.846;2023-12-22T05:30:01;100155.0;;;10.63;90.1
79118;BME280;68523;51.336;-0.846;2023-12-22T05:33:01;100155.0;;;10.64;89.9
79118;BME280;68523;51.336;-0.846;2023-12-22T05:36:01;100155.0;;;10.68;90.0
79118;BME280;68523;51.336;-0.846;2023-12-22T05:39:00;100155.0;;;10.71;89.6
79118;BME280;68523;51.336;-0.846;2023-12-22T05:42:00;100145.0;;;10.67;89.8
79118;BME280;68523;51.336;-0.846;2023-12-22T05:45:01;100165.0;;;10.77;89.2
79118;BME280;68523;51.336;-0.846;2023-12-22T05:48:01;100165.0;;;10.71;89.4
79118;BME280;68523;51.336;-0.846;2023-12-22T05:51:01;100155.0;;;10.75;89.1
79118;BME280;68523;51.336;-0.846;2023-12-22T05:54:00;100165.0;;;10.69;89.1
79118;BME280;68523;51.336;-0.846;2023-12-22T05:57:01;100175.0;;;10.74;89.0
79118;BME280;68523;51.336;-0.846;2023-12-22T06:00:01;100165.0;;;10.67;89.0
79118;BME280;68523;51.336;-0.846;2023-12-22T06:03:01;100165.0;;;10.65;89.0
79118;BME280;68523;51.336;-0.846;2023-12-22T06:06:01;100165.0;;;10.70;88.5
79118;BME280;68523;51.336;-0.846;2023-12-22T06:09:01;100165.0;;;10.70;88.5
79118;BME280;68523;51.336;-0.846;2023-12-22T06:12:00;100165.0;;;10.77;88.2
79118;BME280;68523;51.336;-0.846;2023-12-22T06:15:01;100155.0;;;10.74;88.4
79118;BME280;68523;51.336;-0.846;2023-12-22T06:18:02;100155.0;;;10.66;88.7
79118;BME280;68523;51.336;-0.846;2023-12-22T06:21:01;100155.0;;;10.74;88.2
79118;BME280;68523;51.336;-0.846;2023-12-22T06:24:01;100165.0;;;10.80;87.9
79118;BME280;68523;51.336;-0.846;2023-12-22T06:27:00;100165.0;;;10.71;88.3
79118;BME280;68523;51.336;-0.846;2023-12-22T06:30:00;100165.0;;;10.76;87.9
79118;BME280;68523;51.336;-0.846;2023-12-22T06:33:00;100175.0;;;10.86;87.3
79118;BME280;68523;51.336;-0.846;2023-12-22T06:36:00;100175.0;;;10.81;87.7
79118;BME280;68523;51.336;-0.846;2023-12-22T06:39:01;100185.0;;;10.77;88.2
79118;BME280;68523;51.336;-0.846;2023-12-22T06:42:00;100175.0;;;10.78;88.1
79118;BME280;68523;51.336;-0.846;2023-12-22T06:45:01;100185.0;;;10.73;88.3
79118;BME280;68523;51.336;-0.846;2023-12-22T06:48:02;100175.0;;;10.75;88.2
79118;BME280;68523;51.336;-0.846;2023-12-22T06:51:00;100185.0;;;10.78;88.2
79118;BME280;68523;51.336;-0.846;2023-12-22T06:54:01;100185.0;;;10.81;87.7
79118;BME280;68523;51.336;-0.846;2023-12-22T06:57:00;100185.0;;;10.84;87.7
79118;BME280;68523;51.336;-0.846;2023-12-22T07:00:00;100185.0;;;10.80;87.8
79118;BME280;68523;51.336;-0.846;2023-12-22T07:03:00;100185.0;;;10.78;87.6
79118;BME280;68523;51.336;-0.846;2023-12-22T07:06:01;100195.0;;;10.81;87.4
79118;BME280;68523;51.336;-0.846;2023-12-22T07:12:01;100195.0;;;10.70;87.4
79118;BME280;68523;51.336;-0.846;2023-12-22T07:15:01;100195.0;;;10.79;86.7
79118;BME280;68523;51.336;-0.846;2023-12-22T07:18:01;100205.0;;;10.78;86.7
79118;BME280;68523;51.336;-0.846;2023-12-22T07:21:01;100205.0;;;10.77;86.5
79118;BME280;68523;51.336;-0.846;2023-12-22T07:24:01;100215.0;;;10.80;86.4
79118;BME280;68523;51.336;-0.846;2023-12-22T07:27:01;100215.0;;;10.79;86.2
79118;BME280;68523;51.336;-0.846;2023-12-22T07:30:00;100225.0;;;10.73;86.7
79118;BME280;68523;51.336;-0.846;2023-12-22T07:33:00;100215.0;;;10.77;86.3
79118;BME280;68523;51.336;-0.846;2023-12-22T07:36:00;100225.0;;;10.88;85.5
79118;BME280;68523;51.336;-0.846;2023-12-22T07:39:01;100225.0;;;10.77;86.1
79118;BME280;68523;51.336;-0.846;2023-12-22T07:42:00;100225.0;;;10.80;86.0
79118;BME280;68523;51.336;-0.846;2023-12-22T07:45:01;100225.0;;;10.81;85.9
79118;BME280;68523;51.336;-0.846;2023-12-22T07:48:00;100235.0;;;10.81;85.7
79118;BME280;68523;51.336;-0.846;2023-12-22T07:51:00;100235.0;;;10.79;85.8
79118;BME280;68523;51.336;-0.846;2023-12-22T07:54:00;100235.0;;;10.75;86.1
79118;BME280;68523;51.336;-0.846;2023-12-22T07:57:01;100235.0;;;10.72;86.1
79118;BME280;68523;51.336;-0.846;2023-12-22T08:00:01;100235.0;;;10.68;86.3
79118;BME280;68523;51.336;-0.846;2023-12-22T08:03:00;100245.0;;;10.58;86.9
79118;BME280;68523;51.336;-0.846;2023-12-22T08:06:00;100255.0;;;10.59;87.1
79118;BME280;68523;51.336;-0.846;2023-12-22T08:09:02;100255.0;;;10.55;87.0
79118;BME280;68523;51.336;-0.846;2023-12-22T08:12:00;100265.0;;;10.52;87.3
79118;BME280;68523;51.336;-0.846;2023-12-22T08:15:01;100265.0;;;10.50;87.5
79118;BME280;68523;51.336;-0.846;2023-12-22T08:18:01;100265.0;;;10.45;87.7
79118;BME280;68523;51.336;-0.846;2023-12-22T08:21:00;100265.0;;;10.50;87.6
79118;BME280;68523;51.336;-0.846;2023-12-22T08:24:00;100275.0;;;10.48;87.6
79118;BME280;68523;51.336;-0.846;2023-12-22T08:27:01;100275.0;;;10.44;87.8
79118;BME280;68523;51.336;-0.846;2023-12-22T08:30:01;100275.0;;;10.40;87.7
79118;BME280;68523;51.336;-0.846;2023-12-22T08:33:00;100275.0;;;10.32;88.2
79118;BME280;68523;51.336;-0.846;2023-12-22T08:36:01;100285.0;;;10.30;88.2
79118;BME280;68523;51.336;-0.846;2023-12-22T08:39:00;100285.0;;;10.51;87.2
79118;BME280;68523;51.336;-0.846;2023-12-22T08:42:00;100285.0;;;10.46;87.5
79118;BME280;68523;51.336;-0.846;2023-12-22T08:45:00;100285.0;;;10.49;87.4
79118;BME280;68523;51.336;-0.846;2023-12-22T08:48:01;100285.0;;;10.47;87.6
79118;BME280;68523;51.336;-0.846;2023-12-22T08:51:00;100295.0;;;10.47;87.8
79118;BME280;68523;51.336;-0.846;2023-12-22T08:54:00;100295.0;;;10.48;88.0
79118;BME280;68523;51.336;-0.846;2023-12-22T08:57:02;100295.0;;;10.46;88.2
79118;BME280;68523;51.336;-0.846;2023-12-22T09:00:01;100295.0;;;10.44;88.5
79118;BME280;68523;51.336;-0.846;2023-12-22T09:03:00;100295.0;;;10.45;88.6
79118;BME280;68523;51.336;-0.846;2023-12-22T09:06:00;100305.0;;;10.46;88.4
79118;BME280;68523;51.336;-0.846;2023-12-22T09:09:00;100295.0;;;10.48;88.6
79118;BME280;68523;51.336;-0.846;2023-12-22T09:12:01;100295.0;;;10.47;88.6
79118;BME280;68523;51.336;-0.846;2023-12-22T09:15:00;100295.0;;;10.43;88.9
79118;BME280;68523;51.336;-0.846;2023-12-22T09:18:00;100305.0;;;10.39;88.8
79118;BME280;68523;51.336;-0.846;2023-12-22T09:21:01;100305.0;;;10.37;89.2
79118;BME280;68523;51.336;-0.846;2023-12-22T09:24:00;100305.0;;;10.29;89.5
79118;BME280;68523;51.336;-0.846;2023-12-22T09:27:00;100315.0;;;10.24;89.6
79118;BME280;68523;51.336;-0.846;2023-12-22T09:30:01;100325.0;;;10.23;89.5
79118;BME280;68523;51.336;-0.846;2023-12-22T09:33:00;100315.0;;;10.26;89.7
79118;BME280;68523;51.336;-0.846;2023-12-22T09:36:00;100315.0;;;10.33;89.0
79118;BME280;68523;51.336;-0.846;2023-12-22T09:39:00;100325.0;;;10.39;88.8
79118;BME280;68523;51.336;-0.846;2023-12-22T09:42:00;100335.0;;;10.44;88.4
79118;BME280;68523;51.336;-0.846;2023-12-22T09:45:02;100335.0;;;10.44;88.3
79118;BME280;68523;51.336;-0.846;2023-12-22T09:48:01;100335.0;;;10.42;88.0
79118;BME280;68523;51.336;-0.846;2023-12-22T09:51:02;100345.0;;;10.40;88.1
79118;BME280;68523;51.336;-0.846;2023-12-22T09:54:02;100335.0;;;10.42;87.9
79118;BME280;68523;51.336;-0.846;2023-12-22T09:57:01;100335.0;;;10.41;87.5
79118;BME280;68523;51.336;-0.846;2023-12-22T10:00:01;100345.0;;;10.37;87.7
79118;BME280;68523;51.336;-0.846;2023-12-22T10:03:01;100345.0;;;10.38;87.6
79118;BME280;68523;51.336;-0.846;2023-12-22T10:06:01;100355.0;;;10.41;87.0
79118;BME280;68523;51.336;-0.846;2023-12-22T10:09:00;100345.0;;;10.44;86.8
79118;BME280;68523;51.336;-0.846;2023-12-22T10:12:01;100355.0;;;10.49;86.6
79118;BME280;68523;51.336;-0.846;2023-12-22T10:15:01;100365.0;;;10.52;86.6
79118;BME280;68523;51.336;-0.846;2023-12-22T10:18:01;100375.0;;;10.60;86.3
79118;BME280;68523;51.336;-0.846;2023-12-22T10:21:00;100385.0;;;10.64;85.8
79118;BME280;68523;51.336;-0.846;2023-12-22T10:24:00;100385.0;;;10.68;85.9
79118;BME280;68523;51.336;-0.846;2023-12-22T10:27:00;100375.0;;;10.69;85.5
79118;BME280;68523;51.336;-0.846;2023-12-22T10:30:00;100375.0;;;10.73;85.2
79118;BME280;68523;51.336;-0.846;2023-12-22T10:33:03;100375.0;;;10.88;84.7
79118;BME280;68523;51.336;-0.846;2023-12-22T10:36:01;100365.0;;;11.00;84.4
79118;BME280;68523;51.336;-0.846;2023-12-22T10:39:00;100375.0;;;11.00;83.8
79118;BME280;68523;51.336;-0.846;2023-12-22T10:42:00;100375.0;;;11.16;83.4
79118;BME280;68523;51.336;-0.846;2023-12-22T10:45:01;100375.0;;;11.25;83.1
79118;BME280;68523;51.336;-0.846;2023-12-22T10:48:00;100375.0;;;11.26;82.8
79118;BME280;68523;51.336;-0.846;2023-12-22T10:51:00;100375.0;;;11.16;82.4
79118;BME280;68523;51.336;-0.846;2023-12-22T10:54:00;100365.0;;;11.20;82.7
79118;BME280;68523;51.336;-0.846;2023-12-22T10:57:00;100375.0;;;11.22;83.0
79118;BME280;68523;51.336;-0.846;2023-12-22T11:00:01;100375.0;;;11.19;82.7
79118;BME280;68523;51.336;-0.846;2023-12-22T11:03:01;100375.0;;;11.17;82.6
79118;BME280;68523;51.336;-0.846;2023-12-22T11:06:04;100375.0;;;11.20;82.8
79118;BME280;68523;51.336;-0.846;2023-12-22T11:09:03;100365.0;;;11.23;82.7
79118;BME280;68523;51.336;-0.846;2023-12-22T11:12:00;100365.0;;;11.29;82.6
79118;BME280;68523;51.336;-0.846;2023-12-22T11:15:01;100365.0;;;11.29;82.6
79118;BME280;68523;51.336;-0.846;2023-12-22T11:18:01;100365.0;;;11.27;82.6
79118;BME280;68523;51.336;-0.846;2023-12-22T11:21:01;100365.0;;;11.34;82.7
79118;BME280;68523;51.336;-0.846;2023-12-22T11:24:01;100375.0;;;11.29;82.8
79118;BME280;68523;51.336;-0.846;2023-12-22T11:27:01;100375.0;;;11.35;82.7
79118;BME280;68523;51.336;-0.846;2023-12-22T11:30:01;100375.0;;;11.35;82.6
79118;BME280;68523;51.336;-0.846;2023-12-22T11:33:01;100375.0;;;11.39;82.7
79118;BME280;68523;51.336;-0.846;2023-12-22T11:36:01;100375.0;;;11.39;82.7
79118;BME280;68523;51.336;-0.846;2023-12-22T11:39:01;100385.0;;;11.48;82.3
79118;BME280;68523;51.336;-0.846;2023-12-22T11:42:01;100375.0;;;11.72;82.0
79118;BME280;68523;51.336;-0.846;2023-12-22T11:45:00;100375.0;;;11.56;81.6
79118;BME280;68523;51.336;-0.846;2023-12-22T11:48:06;100375.0;;;11.65;81.2
79118;BME280;68523;51.336;-0.846;2023-12-22T11:51:00;100375.0;;;11.77;80.2
79118;BME280;68523;51.336;-0.846;2023-12-22T11:54:00;100365.0;;;11.72;80.4
79118;BME280;68523;51.336;-0.846;2023-12-22T11:57:01;100365.0;;;11.79;80.1
79118;BME280;68523;51.336;-0.846;2023-12-22T12:00:02;100365.0;;;11.74;80.3
79118;BME280;68523;51.336;-0.846;2023-12-22T12:03:05;100365.0;;;11.68;80.0
79118;BME280;68523;51.336;-0.846;2023-12-22T12:06:10;100365.0;;;11.79;79.6
79118;BME280;68523;51.336;-0.846;2023-12-22T12:09:04;100355.0;;;11.92;79.9
79118;BME280;68523;51.336;-0.846;2023-12-22T12:12:11;100365.0;;;11.74;79.9
79118;BME280;68523;51.336;-0.846;2023-12-22T12:15:07;100365.0;;;11.92;79.2
79118;BME280;68523;51.336;-0.846;2023-12-22T12:18:01;100365.0;;;11.84;78.9
79118;BME280;68523;51.336;-0.846;2023-12-22T12:21:00;100365.0;;;11.90;78.9
79118;BME280;68523;51.336;-0.846;2023-12-22T12:24:00;100355.0;;;11.82;78.7
79118;BME280;68523;51.336;-0.846;2023-12-22T12:27:01;100345.0;;;12.06;78.3
79118;BME280;68523;51.336;-0.846;2023-12-22T12:30:06;100355.0;;;12.05;78.3
79118;BME280;68523;51.336;-0.846;2023-12-22T12:33:06;100355.0;;;11.98;78.6
79118;BME280;68523;51.336;-0.846;2023-12-22T12:36:01;100355.0;;;11.98;78.5
79118;BME280;68523;51.336;-0.846;2023-12-22T12:39:06;100355.0;;;11.96;78.6
79118;BME280;68523;51.336;-0.846;2023-12-22T12:42:01;100365.0;;;11.99;78.2
79118;BME280;68523;51.336;-0.846;2023-12-22T12:45:03;100365.0;;;12.03;78.1
79118;BME280;68523;51.336;-0.846;2023-12-22T12:48:01;100365.0;;;11.98;78.1
79118;BME280;68523;51.336;-0.846;2023-12-22T12:51:02;100365.0;;;12.29;78.3
79118;BME280;68523;51.336;-0.846;2023-12-22T12:54:00;100365.0;;;12.03;77.9
79118;BME280;68523;51.336;-0.846;2023-12-22T12:57:00;100355.0;;;11.96;77.8
79118;BME280;68523;51.336;-0.846;2023-12-22T13:00:00;100355.0;;;12.08;77.6
79118;BME280;68523;51.336;-0.846;2023-12-22T13:03:01;100355.0;;;12.10;77.7
79118;BME280;68523;51.336;-0.846;2023-12-22T13:06:07;100345.0;;;12.23;77.3
79118;BME280;68523;51.336;-0.846;2023-12-22T13:09:01;100345.0;;;12.03;77.2
79118;BME280;68523;51.336;-0.846;2023-12-22T13:12:01;100355.0;;;12.06;76.9
79118;BME280;68523;51.336;-0.846;2023-12-22T13:15:02;100355.0;;;12.20;77.0
79118;BME280;68523;51.336;-0.846;2023-12-22T13:18:01;100355.0;;;12.09;77.3
79118;BME280;68523;51.336;-0.846;2023-12-22T13:21:00;100355.0;;;11.94;77.2
79118;BME280;68523;51.336;-0.846;2023-12-22T13:24:08;100345.0;;;12.05;77.1
79118;BME280;68523;51.336;-0.846;2023-12-22T13:27:02;100355.0;;;12.14;76.8
79118;BME280;68523;51.336;-0.846;2023-12-22T13:30:01;100355.0;;;12.09;76.8
79118;BME280;68523;51.336;-0.846;2023-12-22T13:33:00;100355.0;;;12.08;76.6
79118;BME280;68523;51.336;-0.846;2023-12-22T13:36:00;100355.0;;;12.17;76.8
79118;BME280;68523;51.336;-0.846;2023-12-22T13:39:00;100355.0;;;12.12;76.8
79118;BME280;68523;51.336;-0.846;2023-12-22T13:42:01;100355.0;;;11.96;77.0
79118;BME280;68523;51.336;-0.846;2023-12-22T13:45:00;100355.0;;;11.99;77.2
79118;BME280;68523;51.336;-0.846;2023-12-22T13:48:00;100345.0;;;12.05;76.8
79118;BME280;68523;51.336;-0.846;2023-12-22T13:51:01;100355.0;;;12.01;76.8
79118;BME280;68523;51.336;-0.846;2023-12-22T13:54:00;100345.0;;;12.03;76.8
79118;BME280;68523;51.336;-0.846;2023-12-22T13:57:00;100355.0;;;12.07;76.7
79118;BME280;68523;51.336;-0.846;2023-12-22T14:00:00;100365.0;;;11.87;76.9
79118;BME280;68523;51.336;-0.846;2023-12-22T14:03:01;100355.0;;;11.79;77.3
79118;BME280;68523;51.336;-0.846;2023-12-22T14:06:00;100365.0;;;11.75;77.4
79118;BME280;68523;51.336;-0.846;2023-12-22T14:09:00;100365.0;;;11.68;77.4
79118;BME280;68523;51.336;-0.846;2023-12-22T14:12:00;100365.0;;;11.72;77.6
79118;BME280;68523;51.336;-0.846;2023-12-22T14:15:00;100365.0;;;11.62;77.1
79118;BME280;68523;51.336;-0.846;2023-12-22T14:18:01;100365.0;;;11.63;77.0
79118;BME280;68523;51.336;-0.846;2023-12-22T14:21:00;100365.0;;;11.60;76.9
79118;BME280;68523;51.336;-0.846;2023-12-22T14:24:00;100355.0;;;11.70;77.4
79118;BME280;68523;51.336;-0.846;2023-12-22T14:27:00;100365.0;;;11.62;76.8
79118;BME280;68523;51.336;-0.846;2023-12-22T14:30:00;100365.0;;;11.62;77.3
79118;BME280;68523;51.336;-0.846;2023-12-22T14:33:00;100365.0;;;11.68;77.5
79118;BME280;68523;51.336;-0.846;2023-12-22T14:36:00;100365.0;;;11.46;77.1
79118;BME280;68523;51.336;-0.846;2023-12-22T14:39:00;100355.0;;;11.46;77.4
79118;BME280;68523;51.336;-0.846;2023-12-22T14:42:00;100365.0;;;11.45;77.1
79118;BME280;68523;51.336;-0.846;2023-12-22T14:45:00;100365.0;;;11.50;77.4
79118;BME280;68523;51.336;-0.846;2023-12-22T14:48:00;100375.0;;;11.54;76.9
79118;BME280;68523;51.336;-0.846;2023-12-22T14:51:00;100375.0;;;11.46;77.0
79118;BME280;68523;51.336;-0.846;2023-12-22T14:54:00;100375.0;;;11.43;77.0
79118;BME280;68523;51.336;-0.846;2023-12-22T14:57:00;100375.0;;;11.42;77.6
79118;BME280;68523;51.336;-0.846;2023-12-22T15:00:00;100385.0;;;11.40;77.2
79118;BME280;68523;51.336;-0.846;2023-12-22T15:03:00;100375.0;;;11.35;77.2
79118;BME280;68523;51.336;-0.846;2023-12-22T15:06:02;100385.0;;;11.33;77.3
79118;BME280;68523;51.336;-0.846;2023-12-22T15:09:01;100385.0;;;11.30;77.0
79118;BME280;68523;51.336;-0.846;2023-12-22T15:12:00;100395.0;;;11.33;76.7
79118;BME280;68523;51.336;-0.846;2023-12-22T15:15:00;100405.0;;;11.27;77.3
79118;BME280;68523;51.336;-0.846;2023-12-22T15:18:00;100405.0;;;11.22;76.6
79118;BME280;68523;51.336;-0.846;2023-12-22T15:21:00;100415.0;;;11.21;76.8
79118;BME280;68523;51.336;-0.846;2023-12-22T15:24:00;100415.0;;;11.23;76.3
79118;BME280;68523;51.336;-0.846;2023-12-22T15:27:00;100415.0;;;11.15;76.5
79118;BME280;68523;51.336;-0.846;2023-12-22T15:30:02;100425.0;;;11.12;76.5
79118;BME280;68523;51.336;-0.846;2023-12-22T15:33:01;100425.0;;;11.04;77.0
79118;BME280;68523;51.336;-0.846;2023-12-22T15:36:01;100425.0;;;11.04;76.7
79118;BME280;68523;51.336;-0.846;2023-12-22T15:39:02;100425.0;;;11.02;76.7
79118;BME280;68523;51.336;-0.846;2023-12-22T15:42:01;100425.0;;;10.94;77.0
79118;BME280;68523;51.336;-0.846;2023-12-22T15:45:00;100425.0;;;10.88;77.1
79118;BME280;68523;51.336;-0.846;2023-12-22T15:48:00;100425.0;;;10.91;76.9
79118;BME280;68523;51.336;-0.846;2023-12-22T15:51:05;100435.0;;;10.88;76.6
79118;BME280;68523;51.336;-0.846;2023-12-22T15:54:01;100425.0;;;10.91;76.5
79118;BME280;68523;51.336;-0.846;2023-12-22T15:57:00;100435.0;;;10.93;76.1